Time;durP1;ratioP1;P1;durP2;ratioP2;P2;SDS_P1;SDS_P2;PMS_P1;PMS_P2;Temp;Humidity;BMP_temperature;BMP_pressure;BME280_temperature;BME280_humidity;BME280_pressure;Samples;Min_cycle;Max_cycle;Signal;HPM_P1;HPM_P2
2022/07/09 00:00:22;;;;;;;;;;;;;;;;;;5055221;28;19917;-28
2022/07/09 00:02:48;;;;;;;;;;;;;;;;;;5055231;28;19909;-28
2022/07/09 00:05:14;;;;;;;;;;;;;;;;;;5055537;28;19912;-28
2022/07/09 00:07:40;;;;;;;;;;;;;;;;;;5055470;28;19919;-29
2022/07/09 00:10:06;;;;;;;;;;;;;;;;;;5055195;28;19916;-28
2022/07/09 00:12:32;;;;;;;;;;;;;;;;;;5055331;28;19912;-28
2022/07/09 00:14:58;;;;;;;;;;;;;;;;;;5055127;28;20264;-28
2022/07/09 00:17:25;;;;;;;;;;;;;;;;;;5055091;28;20260;-30
2022/07/09 00:19:51;;;;;;;;;;;;;;;;;;5055132;28;19928;-29
2022/07/09 00:22:17;;;;;;;;;;;;;;;;;;5055289;28;19917;-28
2022/07/09 00:24:43;;;;;;;;;;;;;;;;;;5054860;28;19929;-28
2022/07/09 00:27:09;;;;;;;;;;;;;;;;;;5054090;28;20272;-28
2022/07/09 00:29:35;;;;;;;;;;;;;;;;;;5055259;28;20264;-28
2022/07/09 00:32:01;;;;;;;;;;;;;;;;;;5057191;28;19916;-28
2022/07/09 00:34:27;;;;;;;;;;;;;;;;;;5059433;28;19909;-28
2022/07/09 00:36:53;;;;;;;;;;;;;;;;;;5059069;28;20274;-28
2022/07/09 00:39:19;;;;;;;;;;;;;;;;;;5059270;28;19919;-28
2022/07/09 00:41:45;;;;;;;;;;;;;;;;;;5058944;28;20310;-29
2022/07/09 00:44:11;;;;;;;;;;;;;;;;;;5058854;28;19912;-28
2022/07/09 00:46:37;;;;;;;;;;;;;;;;;;5059162;28;19913;-28
2022/07/09 00:49:06;;;;;;;;;;;;;;;;;;5058812;28;19909;-28
2022/07/09 00:51:32;;;;;;;;;;;;;;;;;;5059130;28;19915;-28
2022/07/09 00:53:58;;;;;;;;;;;;;;;;;;5058688;28;19912;-27
2022/07/09 00:56:24;;;;;;;;;;;;;;;;;;5058986;28;20332;-28
2022/07/09 00:58:50;;;;;;;;;;;;;;;;;;5058867;28;19927;-28
2022/07/09 01:01:16;;;;;;;;;;;;;;;;;;5058897;28;20251;-28
2022/07/09 01:03:42;;;;;;;;;;;;;;;;;;5058447;28;19923;-28
2022/07/09 01:06:08;;;;;;;;;;;;;;;;;;5058831;28;20042;-28
2022/07/09 01:08:34;;;;;;;;;;;;;;;;;;5058737;28;19921;-28
2022/07/09 01:11:00;;;;;;;;;;;;;;;;;;5058736;28;19978;-28
2022/07/09 01:13:26;;;;;;;;;;;;;;;;;;5058312;28;19912;-28
2022/07/09 01:15:52;;;;;;;;;;;;;;;;;;5058356;28;19916;-28
2022/07/09 01:18:19;;;;;;;;;;;;;;;;;;5058209;28;19995;-28
2022/07/09 01:20:45;;;;;;;;;;;;;;;;;;5059109;28;19966;-28
2022/07/09 01:23:11;;;;;;;;;;;;;;;;;;5057978;28;19925;-28
2022/07/09 01:25:37;;;;;;;;;;;;;;;;;;5058164;28;19913;-28
2022/07/09 01:28:05;;;;;;;;;;;;;;;;;;5058146;28;19948;-28
2022/07/09 01:30:31;;;;;;;;;;;;;;;;;;5058328;28;19920;-29
2022/07/09 01:32:57;;;;;;;;;;;;;;;;;;5058089;28;20356;-28
2022/07/09 01:35:23;;;;;;;;;;;;;;;;;;5058037;28;19916;-28
2022/07/09 01:37:49;;;;;;;;;;;;;;;;;;5057925;28;19974;-28
2022/07/09 01:40:15;;;;;;;;;;;;;;;;;;5058115;28;20255;-28
2022/07/09 01:42:41;;;;;;;;;;;;;;;;;;5057978;28;19924;-28
2022/07/09 01:45:07;;;;;;;;;;;;;;;;;;5058120;28;19967;-28
2022/07/09 01:47:33;;;;;;;;;;;;;;;;;;5057734;28;19913;-28
2022/07/09 01:49:59;;;;;;;;;;;;;;;;;;5057729;28;20012;-28
2022/07/09 01:52:25;;;;;;;;;;;;;;;;;;5057853;28;19913;-28
2022/07/09 01:54:51;;;;;;;;;;;;;;;;;;5056715;28;20260;-28
2022/07/09 01:57:17;;;;;;;;;;;;;;;;;;5057577;28;19926;-28
2022/07/09 01:59:43;;;;;;;;;;;;;;;;;;5057442;28;20267;-28
2022/07/09 02:02:09;;;;;;;;;;;;;;;;;;5057692;28;19997;-28
2022/07/09 02:04:35;;;;;;;;;;;;;;;;;;5057418;28;20336;-28
2022/07/09 02:07:01;;;;;;;;;;;;;;;;;;5057363;28;19913;-28
2022/07/09 02:09:27;;;;;;;;;;;;;;;;;;5057336;28;19919;-28
2022/07/09 02:11:53;;;;;;;;;;;;;;;;;;5057530;28;19924;-28
2022/07/09 02:14:19;;;;;;;;;;;;;;;;;;5057191;28;19909;-27
2022/07/09 02:16:45;;;;;;;;;;;;;;;;;;5056285;28;19920;-28
2022/07/09 02:19:11;;;;;;;;;;;;;;;;;;5057082;28;19986;-28
2022/07/09 02:21:37;;;;;;;;;;;;;;;;;;5057118;28;20267;-28
2022/07/09 02:24:03;;;;;;;;;;;;;;;;;;5056836;28;19921;-29
2022/07/09 02:26:29;;;;;;;;;;;;;;;;;;5057077;28;19935;-28
2022/07/09 02:28:55;;;;;;;;;;;;;;;;;;5057009;28;19913;-28
2022/07/09 02:31:21;;;;;;;;;;;;;;;;;;5057285;28;19920;-28
2022/07/09 02:33:47;;;;;;;;;;;;;;;;;;5056812;28;19913;-28
2022/07/09 02:36:13;;;;;;;;;;;;;;;;;;5056913;28;19909;-28
2022/07/09 02:38:39;;;;;;;;;;;;;;;;;;5056753;28;20011;-28
2022/07/09 02:41:05;;;;;;;;;;;;;;;;;;5055828;28;19998;-28
2022/07/09 02:43:32;;;;;;;;;;;;;;;;;;5056733;28;19923;-28
2022/07/09 02:45:58;;;;;;;;;;;;;;;;;;5056679;28;20344;-28
2022/07/09 02:48:27;;;;;;;;;;;;;;;;;;5056931;28;19920;-28
2022/07/09 02:50:53;;;;;;;;;;;;;;;;;;5056576;28;19935;-28
2022/07/09 02:53:19;;;;;;;;;;;;;;;;;;5056325;28;19991;-28
2022/07/09 02:55:45;;;;;;;;;;;;;;;;;;5056104;28;20344;-28
2022/07/09 02:58:11;;;;;;;;;;;;;;;;;;5056426;28;19917;-28
2022/07/09 03:00:39;;;;;;;;;;;;;;;;;;5056305;28;19917;-28
2022/07/09 03:03:05;;;;;;;;;;;;;;;;;;5056416;28;20339;-28
2022/07/09 03:05:31;;;;;;;;;;;;;;;;;;5056332;28;19956;-28
2022/07/09 03:07:57;;;;;;;;;;;;;;;;;;5056277;28;20351;-28
2022/07/09 03:10:23;;;;;;;;;;;;;;;;;;5056475;28;19920;-28
2022/07/09 03:12:49;;;;;;;;;;;;;;;;;;5056284;28;19909;-28
2022/07/09 03:15:16;;;;;;;;;;;;;;;;;;5056125;28;19952;-28
2022/07/09 03:17:42;;;;;;;;;;;;;;;;;;5056286;28;19913;-28
2022/07/09 03:20:08;;;;;;;;;;;;;;;;;;5055971;28;20240;-28
2022/07/09 03:22:35;;;;;;;;;;;;;;;;;;5054778;28;20382;-28
2022/07/09 03:25:01;;;;;;;;;;;;;;;;;;5056221;28;19916;-28
2022/07/09 03:27:27;;;;;;;;;;;;;;;;;;5055855;28;20292;-28
2022/07/09 03:29:53;;;;;;;;;;;;;;;;;;5056086;28;19908;-28
2022/07/09 03:32:19;;;;;;;;;;;;;;;;;;5055980;28;19913;-28
2022/07/09 03:34:45;;;;;;;;;;;;;;;;;;5055748;28;19909;-29
2022/07/09 03:37:11;;;;;;;;;;;;;;;;;;5055692;28;19948;-28
2022/07/09 03:39:37;;;;;;;;;;;;;;;;;;5055624;28;19913;-28
2022/07/09 03:42:03;;;;;;;;;;;;;;;;;;5055498;28;19913;-28
2022/07/09 03:44:29;;;;;;;;;;;;;;;;;;5055598;28;19909;-28
2022/07/09 03:46:55;;;;;;;;;;;;;;;;;;5055803;28;19919;-28
2022/07/09 03:49:21;;;;;;;;;;;;;;;;;;5055486;28;19912;-28
2022/07/09 03:51:47;;;;;;;;;;;;;;;;;;5055443;28;19913;-28
2022/07/09 03:54:13;;;;;;;;;;;;;;;;;;5055343;28;19908;-28
2022/07/09 03:56:39;;;;;;;;;;;;;;;;;;5055397;28;19912;-28
2022/07/09 03:59:05;;;;;;;;;;;;;;;;;;5055251;28;19970;-28
2022/07/09 04:01:31;;;;;;;;;;;;;;;;;;5055284;28;19974;-28
2022/07/09 04:03:58;;;;;;;;;;;;;;;;;;5055242;28;19990;-28
2022/07/09 04:06:24;;;;;;;;;;;;;;;;;;5054380;28;19995;-28
2022/07/09 04:08:50;;;;;;;;;;;;;;;;;;5055162;28;19913;-28
2022/07/09 04:11:16;;;;;;;;;;;;;;;;;;5055186;28;19920;-28
2022/07/09 04:13:42;;;;;;;;;;;;;;;;;;5055145;28;20043;-28
2022/07/09 04:16:08;;;;;;;;;;;;;;;;;;5055158;28;19952;-28
2022/07/09 04:18:34;;;;;;;;;;;;;;;;;;5055065;28;19995;-28
2022/07/09 04:21:00;;;;;;;;;;;;;;;;;;5055125;28;19995;-28
2022/07/09 04:23:26;;;;;;;;;;;;;;;;;;5054835;28;19921;-28
2022/07/09 04:25:52;;;;;;;;;;;;;;;;;;5055335;28;19924;-28
2022/07/09 04:28:18;;;;;;;;;;;;;;;;;;5055363;28;19919;-28
2022/07/09 04:30:44;;;;;;;;;;;;;;;;;;5054026;28;19916;-28
2022/07/09 04:33:10;;;;;;;;;;;;;;;;;;5054907;28;19909;-28
2022/07/09 04:35:36;;;;;;;;;;;;;;;;;;5054936;28;19920;-27
2022/07/09 04:38:02;;;;;;;;;;;;;;;;;;5055243;28;19909;-28
2022/07/09 04:40:28;;;;;;;;;;;;;;;;;;5054802;28;20374;-28
2022/07/09 04:42:54;;;;;;;;;;;;;;;;;;5054821;28;19942;-28
2022/07/09 04:45:20;;;;;;;;;;;;;;;;;;5053934;28;19912;-29
2022/07/09 04:47:46;;;;;;;;;;;;;;;;;;5054818;28;19913;-28
2022/07/09 04:50:12;;;;;;;;;;;;;;;;;;5054837;28;19916;-28
2022/07/09 04:52:38;;;;;;;;;;;;;;;;;;5054926;28;19913;-28
2022/07/09 04:55:04;;;;;;;;;;;;;;;;;;5055081;28;19936;-28
2022/07/09 04:57:30;;;;;;;;;;;;;;;;;;5054735;28;19974;-28
2022/07/09 04:59:56;;;;;;;;;;;;;;;;;;5054968;28;19912;-28
2022/07/09 05:02:22;;;;;;;;;;;;;;;;;;5054645;28;20409;-28
2022/07/09 05:04:48;;;;;;;;;;;;;;;;;;5054687;28;20007;-28
2022/07/09 05:07:14;;;;;;;;;;;;;;;;;;5054693;28;19908;-28
2022/07/09 05:09:40;;;;;;;;;;;;;;;;;;5054908;28;19913;-28
2022/07/09 05:12:08;;;;;;;;;;;;;;;;;;5054509;28;19920;-28
2022/07/09 05:14:34;;;;;;;;;;;;;;;;;;5053679;28;19917;-28
2022/07/09 05:17:00;;;;;;;;;;;;;;;;;;5054115;28;20367;-28
2022/07/09 05:19:26;;;;;;;;;;;;;;;;;;5058538;28;20054;-28
2022/07/09 05:21:52;;;;;;;;;;;;;;;;;;5058253;28;19913;-28
2022/07/09 05:24:18;;;;;;;;;;;;;;;;;;5057020;28;20387;-28
2022/07/09 05:26:44;;;;;;;;;;;;;;;;;;5058462;28;19939;-28
2022/07/09 05:29:10;;;;;;;;;;;;;;;;;;5057200;28;19994;-29
2022/07/09 05:31:36;;;;;;;;;;;;;;;;;;5058101;28;20378;-28
2022/07/09 05:34:02;;;;;;;;;;;;;;;;;;5057039;28;19913;-28
2022/07/09 05:36:28;;;;;;;;;;;;;;;;;;5058038;28;19945;-28
2022/07/09 05:38:55;;;;;;;;;;;;;;;;;;5057845;28;20007;-28
2022/07/09 05:41:22;;;;;;;;;;;;;;;;;;5057941;28;19912;-27
2022/07/09 05:43:48;;;;;;;;;;;;;;;;;;5056812;28;19956;-28
2022/07/09 05:46:14;;;;;;;;;;;;;;;;;;5058077;28;19920;-28
2022/07/09 05:48:40;;;;;;;;;;;;;;;;;;5058214;28;19979;-28
2022/07/09 05:51:06;;;;;;;;;;;;;;;;;;5058018;28;19921;-28
2022/07/09 05:53:32;;;;;;;;;;;;;;;;;;5057616;28;19967;-29
2022/07/09 05:55:58;;;;;;;;;;;;;;;;;;5057640;28;20288;-28
2022/07/09 05:58:24;;;;;;;;;;;;;;;;;;5057602;28;20260;-28
2022/07/09 06:00:50;;;;;;;;;;;;;;;;;;5057471;28;19916;-27
2022/07/09 06:03:16;;;;;;;;;;;;;;;;;;5057734;28;19913;-28
2022/07/09 06:05:42;;;;;;;;;;;;;;;;;;5057435;28;20264;-29
2022/07/09 06:08:09;;;;;;;;;;;;;;;;;;5057449;28;19909;-28
2022/07/09 06:10:35;;;;;;;;;;;;;;;;;;5057683;28;19913;-28
2022/07/09 06:13:01;;;;;;;;;;;;;;;;;;5057288;28;20389;-28
2022/07/09 06:15:27;;;;;;;;;;;;;;;;;;5057594;28;19920;-28
2022/07/09 06:17:53;;;;;;;;;;;;;;;;;;5057232;28;19941;-28
2022/07/09 06:20:19;;;;;;;;;;;;;;;;;;5057435;28;19971;-28
2022/07/09 06:22:45;;;;;;;;;;;;;;;;;;5057116;28;19916;-28
2022/07/09 06:25:11;;;;;;;;;;;;;;;;;;5057402;28;19952;-28
2022/07/09 06:27:37;;;;;;;;;;;;;;;;;;5056958;28;19936;-29
2022/07/09 06:30:03;;;;;;;;;;;;;;;;;;5056292;28;19916;-28
2022/07/09 06:32:29;;;;;;;;;;;;;;;;;;5056788;28;19912;-28
2022/07/09 06:34:55;;;;;;;;;;;;;;;;;;5056804;28;19973;-27
2022/07/09 06:37:21;;;;;;;;;;;;;;;;;;5055874;28;19939;-28
2022/07/09 06:39:50;;;;;;;;;;;;;;;;;;5056720;28;19913;-28
2022/07/09 06:42:16;;;;;;;;;;;;;;;;;;5056985;28;19912;-28
2022/07/09 06:44:42;;;;;;;;;;;;;;;;;;5056776;28;20263;-28
2022/07/09 06:47:08;;;;;;;;;;;;;;;;;;5056902;28;19913;-27
2022/07/09 06:49:34;;;;;;;;;;;;;;;;;;5056626;28;19913;-29
2022/07/09 06:52:00;;;;;;;;;;;;;;;;;;5056481;28;20323;-28
2022/07/09 06:54:26;;;;;;;;;;;;;;;;;;5055536;28;20314;-28
2022/07/09 06:56:52;;;;;;;;;;;;;;;;;;5056486;28;19967;-28
2022/07/09 06:59:18;;;;;;;;;;;;;;;;;;5056663;28;19917;-28
2022/07/09 07:01:44;;;;;;;;;;;;;;;;;;5056302;28;20007;-28
2022/07/09 07:04:12;;;;;;;;;;;;;;;;;;5056250;28;19948;-28
2022/07/09 07:06:38;;;;;;;;;;;;;;;;;;5056405;28;19909;-28
2022/07/09 07:09:04;;;;;;;;;;;;;;;;;;5056199;28;20378;-28
2022/07/09 07:11:30;;;;;;;;;;;;;;;;;;5056469;28;19962;-28
2022/07/09 07:13:56;;;;;;;;;;;;;;;;;;5056060;28;20007;-28
2022/07/09 07:16:22;;;;;;;;;;;;;;;;;;5056094;28;20369;-28
2022/07/09 07:18:48;;;;;;;;;;;;;;;;;;5055965;28;19913;-28
2022/07/09 07:21:14;;;;;;;;;;;;;;;;;;5056037;28;19920;-28
2022/07/09 07:23:40;;;;;;;;;;;;;;;;;;5055744;28;19996;-28
2022/07/09 07:26:06;;;;;;;;;;;;;;;;;;5056172;28;19970;-28
2022/07/09 07:28:32;;;;;;;;;;;;;;;;;;5055872;28;19963;-29
2022/07/09 07:30:58;;;;;;;;;;;;;;;;;;5055857;28;19913;-28
2022/07/09 07:33:24;;;;;;;;;;;;;;;;;;5054787;28;19978;-28
2022/07/09 07:35:50;;;;;;;;;;;;;;;;;;5055778;28;19912;-28
2022/07/09 07:38:16;;;;;;;;;;;;;;;;;;5055718;28;19913;-28
2022/07/09 07:40:42;;;;;;;;;;;;;;;;;;5055468;28;20267;-29
2022/07/09 07:43:08;;;;;;;;;;;;;;;;;;5055560;28;20409;-29
2022/07/09 07:45:34;;;;;;;;;;;;;;;;;;5055580;28;19970;-28
2022/07/09 07:48:00;;;;;;;;;;;;;;;;;;5055499;28;19909;-28
2022/07/09 07:50:26;;;;;;;;;;;;;;;;;;5055265;28;19913;-28
2022/07/09 07:52:52;;;;;;;;;;;;;;;;;;5055309;28;19919;-29
2022/07/09 07:55:18;;;;;;;;;;;;;;;;;;5054497;28;20344;-28
2022/07/09 07:57:44;;;;;;;;;;;;;;;;;;5055623;28;19923;-28
2022/07/09 08:00:10;;;;;;;;;;;;;;;;;;5055318;28;20343;-28
2022/07/09 08:02:36;;;;;;;;;;;;;;;;;;5055182;28;19955;-28
2022/07/09 08:05:02;;;;;;;;;;;;;;;;;;5055322;28;19912;-28
2022/07/09 08:07:28;;;;;;;;;;;;;;;;;;5055276;28;19920;-28
2022/07/09 08:09:54;;;;;;;;;;;;;;;;;;5055228;28;19962;-28
2022/07/09 08:12:19;;;;;;;;;;;;;;;;;;5055174;28;19913;-28
2022/07/09 08:14:45;;;;;;;;;;;;;;;;;;5055127;28;19919;-28
2022/07/09 08:17:11;;;;;;;;;;;;;;;;;;5055435;28;20413;-28
2022/07/09 08:19:37;;;;;;;;;;;;;;;;;;5053919;28;19970;-27
2022/07/09 08:22:03;;;;;;;;;;;;;;;;;;5055221;28;19974;-28
2022/07/09 08:24:29;;;;;;;;;;;;;;;;;;5054925;28;19997;-28
2022/07/09 08:26:56;;;;;;;;;;;;;;;;;;5053967;28;20007;-28
2022/07/09 08:29:22;;;;;;;;;;;;;;;;;;5054975;28;19917;-28
2022/07/09 08:31:49;;;;;;;;;;;;;;;;;;5054871;28;19971;-28
2022/07/09 08:34:15;;;;;;;;;;;;;;;;;;5054834;28;19943;-28
2022/07/09 08:36:41;;;;;;;;;;;;;;;;;;5055198;28;19936;-28
2022/07/09 08:39:07;;;;;;;;;;;;;;;;;;5054795;28;19921;-28
2022/07/09 08:41:33;;;;;;;;;;;;;;;;;;5055227;28;19941;-28
2022/07/09 08:43:59;;;;;;;;;;;;;;;;;;5054896;28;19924;-28
2022/07/09 08:46:25;;;;;;;;;;;;;;;;;;5053807;28;20336;-28
2022/07/09 08:48:51;;;;;;;;;;;;;;;;;;5053831;28;20409;-30
2022/07/09 08:51:17;;;;;;;;;;;;;;;;;;5054976;28;20247;-28
2022/07/09 08:53:43;;;;;;;;;;;;;;;;;;5057020;28;19979;-28
2022/07/09 08:56:09;;;;;;;;;;;;;;;;;;5058732;28;19951;-28
2022/07/09 08:58:35;;;;;;;;;;;;;;;;;;5057677;28;19913;-28
2022/07/09 09:01:01;;;;;;;;;;;;;;;;;;5057637;28;20374;-28
2022/07/09 09:03:27;;;;;;;;;;;;;;;;;;5058541;28;19923;-28
2022/07/09 09:05:53;;;;;;;;;;;;;;;;;;5058590;28;20302;-28
2022/07/09 09:08:19;;;;;;;;;;;;;;;;;;5057523;28;20003;-28
2022/07/09 09:10:45;;;;;;;;;;;;;;;;;;5057498;28;20375;-28
2022/07/09 09:13:11;;;;;;;;;;;;;;;;;;5058419;28;19924;-28
2022/07/09 09:15:37;;;;;;;;;;;;;;;;;;5058665;28;19916;-28
2022/07/09 09:18:03;;;;;;;;;;;;;;;;;;5057375;28;19913;-28
2022/07/09 09:20:29;;;;;;;;;;;;;;;;;;5057331;28;19912;-28
2022/07/09 09:23:03;;;;;;;;;;;;;;;;;;5058098;28;20350;-28
2022/07/09 09:25:29;;;;;;;;;;;;;;;;;;5057261;28;20356;-28
2022/07/09 09:27:55;;;;;;;;;;;;;;;;;;5058220;28;20363;-27
2022/07/09 09:30:22;;;;;;;;;;;;;;;;;;5058221;28;19927;-28
2022/07/09 09:32:47;;;;;;;;;;;;;;;;;;5057890;28;19936;-28
2022/07/09 09:35:13;;;;;;;;;;;;;;;;;;5058109;28;19908;-28
2022/07/09 09:37:39;;;;;;;;;;;;;;;;;;5057944;28;19913;-28
2022/07/09 09:40:05;;;;;;;;;;;;;;;;;;5057705;28;19923;-28
2022/07/09 09:42:31;;;;;;;;;;;;;;;;;;5057852;28;20000;-28
2022/07/09 09:44:57;;;;;;;;;;;;;;;;;;5057836;28;20323;-28
2022/07/09 09:47:23;;;;;;;;;;;;;;;;;;5057974;28;20340;-28
2022/07/09 09:49:50;;;;;;;;;;;;;;;;;;5057653;28;20298;-28
2022/07/09 09:52:17;;;;;;;;;;;;;;;;;;5057943;28;19963;-28
2022/07/09 09:54:45;;;;;;;;;;;;;;;;;;5057607;28;19977;-28
2022/07/09 09:57:13;;;;;;;;;;;;;;;;;;5057951;28;20013;-28
2022/07/09 09:59:39;;;;;;;;;;;;;;;;;;5057463;28;19967;-28
2022/07/09 10:02:06;;;;;;;;;;;;;;;;;;5057343;28;19920;-28
2022/07/09 10:04:32;;;;;;;;;;;;;;;;;;5056168;28;19912;-28
2022/07/09 10:06:58;;;;;;;;;;;;;;;;;;5057683;28;20251;-28
2022/07/09 10:09:24;;;;;;;;;;;;;;;;;;5057316;28;19952;-28
2022/07/09 10:11:50;;;;;;;;;;;;;;;;;;5057362;28;19959;-28
2022/07/09 10:14:16;;;;;;;;;;;;;;;;;;5056220;28;19924;-28
2022/07/09 10:16:42;;;;;;;;;;;;;;;;;;5057212;28;19908;-28
2022/07/09 10:19:08;;;;;;;;;;;;;;;;;;5057106;28;19960;-28
2022/07/09 10:21:35;;;;;;;;;;;;;;;;;;5056100;28;19916;-28
2022/07/09 10:24:01;;;;;;;;;;;;;;;;;;5056889;28;20409;-28
2022/07/09 10:26:27;;;;;;;;;;;;;;;;;;5056133;28;19912;-28
2022/07/09 10:28:53;;;;;;;;;;;;;;;;;;5057018;28;19966;-28
2022/07/09 10:31:19;;;;;;;;;;;;;;;;;;5056929;28;19917;-28
2022/07/09 10:33:45;;;;;;;;;;;;;;;;;;5056823;28;19945;-28
2022/07/09 10:36:11;;;;;;;;;;;;;;;;;;5056980;28;20383;-28
2022/07/09 10:38:40;;;;;;;;;;;;;;;;;;5056746;28;19919;-28
2022/07/09 10:41:06;;;;;;;;;;;;;;;;;;5057064;28;19999;-28
2022/07/09 10:43:32;;;;;;;;;;;;;;;;;;5056545;28;19920;-28
2022/07/09 10:45:58;;;;;;;;;;;;;;;;;;5056661;28;19909;-28
2022/07/09 10:48:24;;;;;;;;;;;;;;;;;;5056677;28;19938;-28
2022/07/09 10:50:50;;;;;;;;;;;;;;;;;;5056797;28;20392;-28
2022/07/09 10:53:17;;;;;;;;;;;;;;;;;;5056428;28;19908;-28
2022/07/09 10:55:46;;;;;;;;;;;;;;;;;;5056482;28;19917;-28
2022/07/09 10:58:12;;;;;;;;;;;;;;;;;;5056735;28;20003;-28
2022/07/09 11:00:38;;;;;;;;;;;;;;;;;;5056330;28;19960;-28
2022/07/09 11:03:04;;;;;;;;;;;;;;;;;;5056614;28;19948;-28
2022/07/09 11:05:30;;;;;;;;;;;;;;;;;;5056591;28;19913;-27
2022/07/09 11:07:56;;;;;;;;;;;;;;;;;;5055359;28;19983;-28
2022/07/09 11:10:22;;;;;;;;;;;;;;;;;;5055293;28;20379;-29
2022/07/09 11:12:48;;;;;;;;;;;;;;;;;;5055158;28;19913;-29
2022/07/09 11:15:14;;;;;;;;;;;;;;;;;;5054705;28;20267;-28
2022/07/09 11:17:40;;;;;;;;;;;;;;;;;;5056220;28;20066;-28
2022/07/09 11:20:06;;;;;;;;;;;;;;;;;;5055008;28;19921;-29
2022/07/09 11:22:32;;;;;;;;;;;;;;;;;;5055947;28;20024;-28
2022/07/09 11:24:58;;;;;;;;;;;;;;;;;;5055944;28;20416;-29
2022/07/09 11:27:24;;;;;;;;;;;;;;;;;;5056205;28;19935;-28
2022/07/09 11:29:50;;;;;;;;;;;;;;;;;;5056702;28;19927;-28
2022/07/09 11:32:17;;;;;;;;;;;;;;;;;;5055812;28;19924;-28
2022/07/09 11:34:42;;;;;;;;;;;;;;;;;;5055821;28;19990;-28
2022/07/09 11:37:10;;;;;;;;;;;;;;;;;;5056077;28;19913;-28
2022/07/09 11:39:36;;;;;;;;;;;;;;;;;;5055907;28;19986;-28
2022/07/09 11:42:02;;;;;;;;;;;;;;;;;;5055907;28;19963;-28
2022/07/09 11:44:28;;;;;;;;;;;;;;;;;;5055627;28;20267;-28
2022/07/09 11:46:54;;;;;;;;;;;;;;;;;;5055568;28;19916;-28
2022/07/09 11:49:23;;;;;;;;;;;;;;;;;;5055566;28;19912;-28
2022/07/09 11:51:49;;;;;;;;;;;;;;;;;;5055496;28;19935;-28
2022/07/09 11:54:16;;;;;;;;;;;;;;;;;;5055668;28;19913;-28
2022/07/09 11:56:44;;;;;;;;;;;;;;;;;;5055476;28;20340;-28
2022/07/09 11:59:10;;;;;;;;;;;;;;;;;;5055304;28;19978;-28
2022/07/09 12:01:36;;;;;;;;;;;;;;;;;;5055324;28;19909;-28
2022/07/09 12:04:02;;;;;;;;;;;;;;;;;;5055231;28;19956;-28
2022/07/09 12:06:28;;;;;;;;;;;;;;;;;;5054371;28;20343;-27
2022/07/09 12:08:54;;;;;;;;;;;;;;;;;;5054324;28;20339;-28
2022/07/09 12:11:19;;;;;;;;;;;;;;;;;;5055506;28;20000;-28
2022/07/09 12:13:45;;;;;;;;;;;;;;;;;;5055087;28;19965;-29
2022/07/09 12:16:11;;;;;;;;;;;;;;;;;;5055215;28;19924;-28
2022/07/09 12:18:37;;;;;;;;;;;;;;;;;;5055360;28;19999;-28
2022/07/09 12:21:03;;;;;;;;;;;;;;;;;;5055068;28;20381;-28
2022/07/09 12:23:29;;;;;;;;;;;;;;;;;;5054781;28;19931;-29
2022/07/09 12:25:55;;;;;;;;;;;;;;;;;;5054949;28;19916;-29
2022/07/09 12:28:21;;;;;;;;;;;;;;;;;;5054356;28;20346;-29
2022/07/09 12:30:47;;;;;;;;;;;;;;;;;;5055003;28;19913;-29
2022/07/09 12:33:13;;;;;;;;;;;;;;;;;;5054904;28;19909;-29
2022/07/09 12:35:39;;;;;;;;;;;;;;;;;;5054071;28;20411;-29
2022/07/09 12:38:05;;;;;;;;;;;;;;;;;;5055185;28;19913;-29
2022/07/09 12:40:31;;;;;;;;;;;;;;;;;;5054874;28;20315;-29
2022/07/09 12:42:57;;;;;;;;;;;;;;;;;;5055119;28;19913;-29
2022/07/09 12:45:23;;;;;;;;;;;;;;;;;;5053897;28;20008;-29
2022/07/09 12:47:50;;;;;;;;;;;;;;;;;;5054830;28;19999;-28
2022/07/09 12:50:16;;;;;;;;;;;;;;;;;;5055135;28;20263;-28
2022/07/09 12:52:42;;;;;;;;;;;;;;;;;;5054750;28;19993;-29
2022/07/09 12:55:09;;;;;;;;;;;;;;;;;;5053767;28;19923;-29
2022/07/09 12:57:36;;;;;;;;;;;;;;;;;;5054985;28;19942;-29
2022/07/09 13:00:02;;;;;;;;;;;;;;;;;;5054633;28;19947;-29
2022/07/09 13:02:28;;;;;;;;;;;;;;;;;;5054663;28;19908;-29
2022/07/09 13:04:54;;;;;;;;;;;;;;;;;;5054986;28;19913;-29
2022/07/09 13:07:20;;;;;;;;;;;;;;;;;;5054695;28;19909;-29
2022/07/09 13:09:46;;;;;;;;;;;;;;;;;;5054667;28;20268;-29
2022/07/09 13:12:12;;;;;;;;;;;;;;;;;;5054851;28;20327;-29
2022/07/09 13:14:38;;;;;;;;;;;;;;;;;;5054581;28;20344;-29
2022/07/09 13:17:04;;;;;;;;;;;;;;;;;;5054522;28;19978;-29
2022/07/09 13:19:30;;;;;;;;;;;;;;;;;;5054525;28;19921;-29
2022/07/09 13:21:56;;;;;;;;;;;;;;;;;;5054614;28;19923;-28
2022/07/09 13:24:22;;;;;;;;;;;;;;;;;;5054426;28;20011;-29
2022/07/09 13:26:48;;;;;;;;;;;;;;;;;;5054635;28;19913;-29
2022/07/09 13:29:14;;;;;;;;;;;;;;;;;;5053518;28;19920;-29
2022/07/09 13:31:40;;;;;;;;;;;;;;;;;;5054687;28;19912;-29
2022/07/09 13:34:06;;;;;;;;;;;;;;;;;;5054342;28;19920;-40
2022/07/09 13:36:32;;;;;;;;;;;;;;;;;;5054481;28;19917;-29
2022/07/09 13:38:58;;;;;;;;;;;;;;;;;;5056514;28;19978;-29
2022/07/09 13:41:24;;;;;;;;;;;;;;;;;;5058011;28;19908;-29
2022/07/09 13:43:50;;;;;;;;;;;;;;;;;;5057941;28;20331;-29
2022/07/09 13:46:16;;;;;;;;;;;;;;;;;;5057891;28;20263;-29
2022/07/09 13:48:42;;;;;;;;;;;;;;;;;;5057858;28;19909;-29
2022/07/09 13:51:08;;;;;;;;;;;;;;;;;;5057750;28;19912;-29
2022/07/09 13:53:34;;;;;;;;;;;;;;;;;;5057805;28;19934;-29
2022/07/09 13:56:00;;;;;;;;;;;;;;;;;;5057738;28;19916;-29
2022/07/09 13:58:26;;;;;;;;;;;;;;;;;;5056766;28;19913;-29
2022/07/09 14:00:52;;;;;;;;;;;;;;;;;;5057544;28;19916;-29
2022/07/09 14:03:18;;;;;;;;;;;;;;;;;;5057532;28;19909;-29
2022/07/09 14:05:44;;;;;;;;;;;;;;;;;;5057538;28;19913;-28
2022/07/09 14:08:10;;;;;;;;;;;;;;;;;;5057453;28;19913;-28
2022/07/09 14:10:38;;;;;;;;;;;;;;;;;;5056613;28;20143;-28
2022/07/09 14:13:04;;;;;;;;;;;;;;;;;;5057280;28;19916;-29
2022/07/09 14:15:32;;;;;;;;;;;;;;;;;;5057197;28;19909;-28
2022/07/09 14:17:58;;;;;;;;;;;;;;;;;;5057525;28;19986;-28
2022/07/09 14:20:24;;;;;;;;;;;;;;;;;;5057153;28;20359;-29
2022/07/09 14:22:50;;;;;;;;;;;;;;;;;;5056940;28;19967;-29
2022/07/09 14:25:16;;;;;;;;;;;;;;;;;;5057442;28;19974;-28
2022/07/09 14:27:42;;;;;;;;;;;;;;;;;;5057154;28;20282;-29
2022/07/09 14:30:09;;;;;;;;;;;;;;;;;;5056997;28;19988;-29
2022/07/09 14:32:35;;;;;;;;;;;;;;;;;;5057165;28;20355;-30
2022/07/09 14:35:01;;;;;;;;;;;;;;;;;;5056984;28;19917;-28
2022/07/09 14:37:27;;;;;;;;;;;;;;;;;;5056910;28;19920;-29
2022/07/09 14:39:53;;;;;;;;;;;;;;;;;;5057081;28;20290;-29
2022/07/09 14:42:19;;;;;;;;;;;;;;;;;;5056760;28;19913;-29
2022/07/09 14:44:45;;;;;;;;;;;;;;;;;;5057099;28;19962;-28
2022/07/09 14:47:11;;;;;;;;;;;;;;;;;;5057032;28;19990;-29
2022/07/09 14:49:37;;;;;;;;;;;;;;;;;;5055926;28;19923;-29
2022/07/09 14:52:03;;;;;;;;;;;;;;;;;;5056788;28;19920;-29
2022/07/09 14:54:30;;;;;;;;;;;;;;;;;;5056636;28;20268;-29
2022/07/09 14:56:55;;;;;;;;;;;;;;;;;;5056540;28;19912;-29
2022/07/09 14:59:22;;;;;;;;;;;;;;;;;;5056401;28;19917;-29
2022/07/09 15:01:48;;;;;;;;;;;;;;;;;;5055529;28;19991;-29
2022/07/09 15:04:15;;;;;;;;;;;;;;;;;;5056583;28;20010;-29
2022/07/09 15:06:41;;;;;;;;;;;;;;;;;;5056896;28;20283;-29
2022/07/09 15:09:07;;;;;;;;;;;;;;;;;;5056585;28;19909;-29
2022/07/09 15:11:33;;;;;;;;;;;;;;;;;;5056236;28;20368;-29
2022/07/09 15:13:59;;;;;;;;;;;;;;;;;;5056397;28;19967;-29
2022/07/09 15:16:25;;;;;;;;;;;;;;;;;;5055274;28;20328;-29
2022/07/09 15:18:51;;;;;;;;;;;;;;;;;;5056330;28;20011;-29
2022/07/09 15:21:17;;;;;;;;;;;;;;;;;;5056117;28;20310;-29
2022/07/09 15:23:43;;;;;;;;;;;;;;;;;;5055772;28;19920;-29
2022/07/09 15:26:09;;;;;;;;;;;;;;;;;;5055997;28;19908;-28
2022/07/09 15:28:35;;;;;;;;;;;;;;;;;;5056033;28;20008;-28
2022/07/09 15:31:01;;;;;;;;;;;;;;;;;;5055870;28;19956;-29
2022/07/09 15:33:27;;;;;;;;;;;;;;;;;;5056114;28;19913;-28
2022/07/09 15:35:53;;;;;;;;;;;;;;;;;;5055784;28;19913;-29
2022/07/09 15:38:19;;;;;;;;;;;;;;;;;;5056075;28;20272;-28
2022/07/09 15:40:45;;;;;;;;;;;;;;;;;;5055922;28;19982;-29
2022/07/09 15:43:11;;;;;;;;;;;;;;;;;;5055968;28;19913;-28
2022/07/09 15:45:37;;;;;;;;;;;;;;;;;;5055700;28;19980;-29
2022/07/09 15:48:03;;;;;;;;;;;;;;;;;;5055583;28;19912;-28
2022/07/09 15:50:29;;;;;;;;;;;;;;;;;;5055840;28;19923;-29
2022/07/09 15:52:55;;;;;;;;;;;;;;;;;;5055525;28;20318;-28
2022/07/09 15:55:21;;;;;;;;;;;;;;;;;;5055522;28;19917;-29
2022/07/09 15:57:47;;;;;;;;;;;;;;;;;;5055758;28;20251;-29
2022/07/09 16:00:13;;;;;;;;;;;;;;;;;;5055370;28;20296;-29
2022/07/09 16:02:39;;;;;;;;;;;;;;;;;;5055169;28;19912;-29
2022/07/09 16:05:05;;;;;;;;;;;;;;;;;;5055362;28;19951;-29
2022/07/09 16:07:31;;;;;;;;;;;;;;;;;;5055893;28;19917;-28
2022/07/09 16:09:57;;;;;;;;;;;;;;;;;;5055571;28;19917;-29
2022/07/09 16:15:08;;;;;;;;;;;;;;;;;;5055254;28;20395;-29
2022/07/09 16:17:34;;;;;;;;;;;;;;;;;;5055436;28;19924;-29
2022/07/09 16:20:00;;;;;;;;;;;;;;;;;;5055062;28;19966;-29
2022/07/09 16:22:26;;;;;;;;;;;;;;;;;;5055089;28;19913;-28
2022/07/09 16:24:53;;;;;;;;;;;;;;;;;;5054902;28;19932;-29
2022/07/09 16:27:19;;;;;;;;;;;;;;;;;;5055110;28;19913;-29
2022/07/09 16:29:45;;;;;;;;;;;;;;;;;;5055053;28;19920;-29
2022/07/09 16:32:11;;;;;;;;;;;;;;;;;;5054951;28;19913;-29
2022/07/09 16:34:37;;;;;;;;;;;;;;;;;;5054081;28;19909;-29
2022/07/09 16:37:03;;;;;;;;;;;;;;;;;;5055252;28;20243;-28
2022/07/09 16:39:29;;;;;;;;;;;;;;;;;;5055165;28;20007;-29